sensor_id;sensor_type;location;lat;lon;timestamp;pressure;altitude;pressure_sealevel;temperature;humidity
29879;BME280;16752;53.364;-1.488;2022-07-22T08:19:20;101061.16;;;24.67;41.94
29879;BME280;16752;53.364;-1.488;2022-07-22T08:21:55;101055.13;;;24.73;42.25
29879;BME280;16752;53.364;-1.488;2022-07-22T08:24:31;101053.94;;;24.76;41.77
29879;BME280;16752;53.364;-1.488;2022-07-22T08:27:16;101051.47;;;24.66;41.75
29879;BME280;16752;53.364;-1.488;2022-07-22T08:29:42;101051.16;;;24.61;42.46
29879;BME280;16752;53.364;-1.488;2022-07-22T08:39:08;101048.41;;;24.69;42.09
29879;BME280;16752;53.364;-1.488;2022-07-22T08:45:14;101051.56;;;24.81;41.74
29879;BME280;16752;53.364;-1.488;2022-07-22T08:48:21;101051.56;;;24.81;41.87
29879;BME280;16752;53.364;-1.488;2022-07-22T08:59:52;101049.31;;;24.61;42.64
29879;BME280;16752;53.364;-1.488;2022-07-22T09:02:29;101053.66;;;24.62;42.11
29879;BME280;16752;53.364;-1.488;2022-07-22T09:05:03;101051.75;;;24.71;42.81
29879;BME280;16752;53.364;-1.488;2022-07-22T09:08:18;101048.94;;;24.73;42.62
29879;BME280;16752;53.364;-1.488;2022-07-22T09:10:47;101049.59;;;24.75;42.75
29879;BME280;16752;53.364;-1.488;2022-07-22T09:13:15;101048.06;;;24.72;42.40
29879;BME280;16752;53.364;-1.488;2022-07-22T09:15:51;101048.22;;;24.79;42.75
29879;BME280;16752;53.364;-1.488;2022-07-22T09:37:11;101045.94;;;24.90;41.81
29879;BME280;16752;53.364;-1.488;2022-07-22T09:39:38;101037.91;;;24.90;41.87
29879;BME280;16752;53.364;-1.488;2022-07-22T09:42:05;101043.44;;;24.89;41.74
29879;BME280;16752;53.364;-1.488;2022-07-22T09:44:31;101039.75;;;24.90;41.88
29879;BME280;16752;53.364;-1.488;2022-07-22T09:46:56;101041.94;;;24.94;42.09
29879;BME280;16752;53.364;-1.488;2022-07-22T09:49:32;101044.09;;;24.91;41.50
29879;BME280;16752;53.364;-1.488;2022-07-22T09:51:59;101042.25;;;24.91;41.92
29879;BME280;16752;53.364;-1.488;2022-07-22T09:54:25;101044.28;;;24.89;41.96
29879;BME280;16752;53.364;-1.488;2022-07-22T09:56:51;101040.91;;;24.95;42.02
29879;BME280;16752;53.364;-1.488;2022-07-22T09:59:17;101048.97;;;24.95;42.38
29879;BME280;16752;53.364;-1.488;2022-07-22T10:01:43;101038.22;;;24.95;42.00
29879;BME280;16752;53.364;-1.488;2022-07-22T10:04:25;101038.75;;;24.91;41.76
29879;BME280;16752;53.364;-1.488;2022-07-22T10:07:09;101041.25;;;25.01;42.26
29879;BME280;16752;53.364;-1.488;2022-07-22T10:09:37;101040.16;;;25.10;42.38
29879;BME280;16752;53.364;-1.488;2022-07-22T10:12:27;101039.75;;;25.21;42.54
29879;BME280;16752;53.364;-1.488;2022-07-22T10:14:53;101045.41;;;25.26;42.41
29879;BME280;16752;53.364;-1.488;2022-07-22T10:20:05;101028.50;;;25.03;41.96
29879;BME280;16752;53.364;-1.488;2022-07-22T10:23:05;101030.16;;;25.04;42.34
29879;BME280;16752;53.364;-1.488;2022-07-22T10:25:54;101025.56;;;25.12;42.59
29879;BME280;16752;53.364;-1.488;2022-07-22T10:28:30;101023.69;;;25.13;42.40
29879;BME280;16752;53.364;-1.488;2022-07-22T10:31:19;101022.94;;;25.27;42.44
29879;BME280;16752;53.364;-1.488;2022-07-22T10:33:55;101019.88;;;25.30;41.76
29879;BME280;16752;53.364;-1.488;2022-07-22T10:36:40;101026.19;;;25.37;42.44
29879;BME280;16752;53.364;-1.488;2022-07-22T10:39:12;101021.78;;;25.44;42.50
29879;BME280;16752;53.364;-1.488;2022-07-22T10:42:09;101017.44;;;25.43;42.52
29879;BME280;16752;53.364;-1.488;2022-07-22T10:44:48;101014.00;;;25.49;42.81
29879;BME280;16752;53.364;-1.488;2022-07-22T10:51:16;101020.91;;;25.67;42.76
29879;BME280;16752;53.364;-1.488;2022-07-22T11:12:37;101008.56;;;25.43;44.13
29879;BME280;16752;53.364;-1.488;2022-07-22T11:15:29;101000.38;;;25.36;44.25
29879;BME280;16752;53.364;-1.488;2022-07-22T11:21:07;100999.44;;;25.29;44.10
29879;BME280;16752;53.364;-1.488;2022-07-22T11:23:50;100999.53;;;25.21;44.46
29879;BME280;16752;53.364;-1.488;2022-07-22T11:44:26;100995.34;;;24.73;45.12
29879;BME280;16752;53.364;-1.488;2022-07-22T11:47:13;100986.59;;;24.79;45.54
29879;BME280;16752;53.364;-1.488;2022-07-22T11:52:51;100980.03;;;24.81;45.15
29879;BME280;16752;53.364;-1.488;2022-07-22T11:55:22;100981.63;;;24.90;45.13
29879;BME280;16752;53.364;-1.488;2022-07-22T11:57:51;100981.94;;;24.95;45.21
29879;BME280;16752;53.364;-1.488;2022-07-22T12:00:44;100980.41;;;25.01;45.41
29879;BME280;16752;53.364;-1.488;2022-07-22T12:03:42;100978.06;;;25.21;45.41
29879;BME280;16752;53.364;-1.488;2022-07-22T12:06:22;100977.59;;;25.17;44.49
29879;BME280;16752;53.364;-1.488;2022-07-22T12:15:31;100968.53;;;25.18;45.17
29879;BME280;16752;53.364;-1.488;2022-07-22T12:18:13;100971.28;;;25.10;44.86
29879;BME280;16752;53.364;-1.488;2022-07-22T12:20:46;100982.44;;;24.99;44.91
29879;BME280;16752;53.364;-1.488;2022-07-22T18:29:48;100767.06;;;26.86;43.98
29879;BME280;16752;53.364;-1.488;2022-07-22T18:40:03;100763.50;;;26.78;44.04
29879;BME280;16752;53.364;-1.488;2022-07-22T18:43:24;100761.41;;;26.74;44.28
29879;BME280;16752;53.364;-1.488;2022-07-22T18:46:21;100762.22;;;26.68;44.24
29879;BME280;16752;53.364;-1.488;2022-07-22T18:52:29;100749.34;;;26.63;44.34
29879;BME280;16752;53.364;-1.488;2022-07-22T18:55:08;100753.84;;;26.56;44.40
29879;BME280;16752;53.364;-1.488;2022-07-22T18:57:49;100752.97;;;26.49;44.46
29879;BME280;16752;53.364;-1.488;2022-07-22T19:00:23;100752.16;;;26.48;44.54
29879;BME280;16752;53.364;-1.488;2022-07-22T19:02:59;100757.88;;;26.45;44.60
29879;BME280;16752;53.364;-1.488;2022-07-22T19:05:50;100751.03;;;26.43;44.44
29879;BME280;16752;53.364;-1.488;2022-07-22T19:08:32;100753.50;;;26.38;44.55
29879;BME280;16752;53.364;-1.488;2022-07-22T19:11:05;100746.66;;;26.35;44.37
29879;BME280;16752;53.364;-1.488;2022-07-22T19:13:38;100747.84;;;26.33;44.71
29879;BME280;16752;53.364;-1.488;2022-07-22T19:16:06;100748.25;;;26.30;44.74
29879;BME280;16752;53.364;-1.488;2022-07-22T19:18:39;100748.81;;;26.25;44.74
29879;BME280;16752;53.364;-1.488;2022-07-22T19:21:14;100747.53;;;26.21;44.60
29879;BME280;16752;53.364;-1.488;2022-07-22T19:24:05;100751.81;;;26.15;44.53
29879;BME280;16752;53.364;-1.488;2022-07-22T19:26:31;100753.69;;;26.15;44.45
29879;BME280;16752;53.364;-1.488;2022-07-22T19:28:57;100756.56;;;26.13;44.86
29879;BME280;16752;53.364;-1.488;2022-07-22T19:31:24;100750.56;;;26.11;44.69
29879;BME280;16752;53.364;-1.488;2022-07-22T19:33:52;100755.91;;;26.11;44.82
29879;BME280;16752;53.364;-1.488;2022-07-22T19:36:17;100758.34;;;26.06;44.73
29879;BME280;16752;53.364;-1.488;2022-07-22T19:38:43;100755.88;;;26.05;44.78
29879;BME280;16752;53.364;-1.488;2022-07-22T19:41:09;100766.13;;;26.01;44.63
29879;BME280;16752;53.364;-1.488;2022-07-22T19:43:38;100761.97;;;25.99;44.75
29879;BME280;16752;53.364;-1.488;2022-07-22T19:46:03;100765.06;;;25.96;44.80
29879;BME280;16752;53.364;-1.488;2022-07-22T19:48:29;100760.72;;;25.95;44.81
29879;BME280;16752;53.364;-1.488;2022-07-22T19:50:55;100761.94;;;25.92;44.90
29879;BME280;16752;53.364;-1.488;2022-07-22T19:53:21;100751.78;;;25.87;45.03
29879;BME280;16752;53.364;-1.488;2022-07-22T19:55:46;100757.97;;;25.88;44.70
29879;BME280;16752;53.364;-1.488;2022-07-22T19:58:12;100767.25;;;25.85;44.99
29879;BME280;16752;53.364;-1.488;2022-07-22T20:00:38;100764.09;;;25.82;44.83
29879;BME280;16752;53.364;-1.488;2022-07-22T20:03:09;100772.31;;;25.80;45.04
29879;BME280;16752;53.364;-1.488;2022-07-22T20:05:43;100765.47;;;25.78;44.99
29879;BME280;16752;53.364;-1.488;2022-07-22T20:08:09;100771.03;;;25.76;45.01
29879;BME280;16752;53.364;-1.488;2022-07-22T20:10:40;100770.59;;;25.73;45.20
29879;BME280;16752;53.364;-1.488;2022-07-22T20:13:10;100772.00;;;25.69;45.12
29879;BME280;16752;53.364;-1.488;2022-07-22T20:15:38;100770.34;;;25.68;45.26
29879;BME280;16752;53.364;-1.488;2022-07-22T20:18:07;100777.72;;;25.66;45.20
29879;BME280;16752;53.364;-1.488;2022-07-22T20:20:58;100784.09;;;25.65;45.33
29879;BME280;16752;53.364;-1.488;2022-07-22T20:23:26;100787.81;;;25.64;45.31
29879;BME280;16752;53.364;-1.488;2022-07-22T20:25:52;100776.16;;;25.56;45.20
29879;BME280;16752;53.364;-1.488;2022-07-22T20:28:17;100782.53;;;25.55;45.18
29879;BME280;16752;53.364;-1.488;2022-07-22T20:30:43;100783.75;;;25.53;45.15
29879;BME280;16752;53.364;-1.488;2022-07-22T20:33:14;100791.53;;;25.48;45.16
29879;BME280;16752;53.364;-1.488;2022-07-22T20:35:39;100791.72;;;25.46;45.13
29879;BME280;16752;53.364;-1.488;2022-07-22T20:38:08;100783.88;;;25.45;45.03
29879;BME280;16752;53.364;-1.488;2022-07-22T20:40:34;100767.41;;;25.33;45.06
29879;BME280;16752;53.364;-1.488;2022-07-22T20:42:59;100792.28;;;25.42;45.05
29879;BME280;16752;53.364;-1.488;2022-07-22T20:45:34;100795.16;;;25.40;44.93
29879;BME280;16752;53.364;-1.488;2022-07-22T20:48:01;100805.78;;;25.34;44.31
29879;BME280;16752;53.364;-1.488;2022-07-22T20:50:27;100799.50;;;25.26;43.85
29879;BME280;16752;53.364;-1.488;2022-07-22T20:52:53;100803.66;;;25.29;43.93
29879;BME280;16752;53.364;-1.488;2022-07-22T20:55:31;100805.69;;;25.27;43.92
29879;BME280;16752;53.364;-1.488;2022-07-22T20:58:05;100804.41;;;25.23;43.86
29879;BME280;16752;53.364;-1.488;2022-07-22T21:00:37;100806.47;;;25.21;43.81
29879;BME280;16752;53.364;-1.488;2022-07-22T21:03:29;100806.16;;;25.16;43.84
29879;BME280;16752;53.364;-1.488;2022-07-22T21:06:15;100805.50;;;25.14;44.21
29879;BME280;16752;53.364;-1.488;2022-07-22T21:08:57;100812.44;;;25.08;44.33
29879;BME280;16752;53.364;-1.488;2022-07-22T21:15:24;100809.03;;;25.00;44.74
29879;BME280;16752;53.364;-1.488;2022-07-22T21:21:00;100801.63;;;25.02;44.81
29879;BME280;16752;53.364;-1.488;2022-07-22T21:23:29;100795.63;;;25.00;44.57
